createdAt,value
2019-03-24T00:01:14.514Z,26.43
2019-03-24T00:03:42.907Z,30.67
2019-03-24T00:06:11.387Z,34.90
2019-03-24T00:08:39.786Z,35.37
2019-03-24T00:11:08.176Z,34.10
2019-03-24T00:13:36.571Z,36.27
2019-03-24T00:16:04.982Z,36.03
2019-03-24T00:18:33.443Z,37.67
2019-03-24T00:21:01.835Z,35.83
2019-03-24T00:23:30.512Z,36.77
2019-03-24T00:25:58.909Z,39.67
2019-03-24T00:28:27.302Z,41.57
2019-03-24T00:30:55.710Z,39.73
2019-03-24T00:33:24.102Z,40.07
2019-03-24T00:35:52.544Z,38.43
2019-03-24T00:38:20.953Z,38.60
2019-03-24T00:40:49.346Z,39.80
2019-03-24T00:43:17.737Z,40.20
2019-03-24T00:45:46.139Z,37.67
2019-03-24T00:48:14.540Z,40.00
2019-03-24T00:50:42.973Z,37.80
2019-03-24T00:53:11.370Z,38.30
2019-03-24T00:55:39.791Z,38.87
2019-03-24T00:58:08.186Z,38.10
2019-03-24T01:00:43.813Z,37.80
2019-03-24T01:03:12.212Z,39.30
2019-03-24T01:05:40.819Z,37.50
2019-03-24T01:08:09.435Z,37.67
2019-03-24T01:10:37.816Z,39.27
2019-03-24T01:13:06.745Z,35.30
2019-03-24T01:15:35.190Z,38.70
2019-03-24T01:18:03.648Z,36.83
2019-03-24T01:20:32.166Z,39.37
2019-03-24T01:23:00.567Z,38.07
2019-03-24T01:25:28.964Z,39.53
2019-03-24T01:27:57.391Z,36.87
2019-03-24T01:30:25.786Z,38.90
2019-03-24T01:32:54.188Z,36.37
2019-03-24T01:35:22.578Z,36.97
2019-03-24T01:37:50.976Z,38.43
2019-03-24T01:40:19.376Z,35.57
2019-03-24T01:42:47.781Z,34.67
2019-03-24T01:45:16.176Z,41.27
2019-03-24T01:47:44.610Z,37.37
2019-03-24T01:50:13.009Z,37.47
2019-03-24T01:52:41.412Z,37.97
2019-03-24T01:55:09.802Z,38.07
2019-03-24T01:57:38.195Z,37.13
2019-03-24T02:00:08.300Z,37.70
2019-03-24T02:02:36.732Z,42.20
2019-03-24T02:05:06.572Z,38.10
2019-03-24T02:07:34.975Z,36.07
2019-03-24T02:10:04.510Z,38.27
2019-03-24T02:12:32.946Z,36.30
2019-03-24T02:15:01.350Z,35.90
2019-03-24T02:17:29.787Z,35.20
2019-03-24T02:19:58.187Z,37.17
2019-03-24T02:22:26.626Z,35.47
2019-03-24T02:24:55.020Z,32.60
2019-03-24T02:27:23.443Z,34.80
2019-03-24T02:29:51.833Z,36.07
2019-03-24T02:32:20.253Z,38.17
2019-03-24T02:34:48.657Z,35.17
2019-03-24T02:37:17.120Z,37.23
2019-03-24T02:39:45.521Z,35.77
2019-03-24T02:42:13.954Z,35.03
2019-03-24T02:44:42.347Z,34.73
2019-03-24T02:47:10.788Z,33.93
2019-03-24T02:49:39.181Z,35.53
2019-03-24T02:52:07.683Z,33.73
2019-03-24T02:54:36.081Z,33.70
2019-03-24T02:57:04.548Z,32.17
2019-03-24T02:59:32.954Z,35.30
2019-03-24T03:02:01.395Z,34.53
2019-03-24T03:04:29.775Z,34.00
2019-03-24T03:06:58.178Z,32.87
2019-03-24T03:09:26.580Z,35.10
2019-03-24T03:11:54.984Z,32.97
2019-03-24T03:14:23.391Z,32.30
2019-03-24T03:16:51.792Z,32.77
2019-03-24T03:19:20.192Z,32.27
2019-03-24T03:21:48.590Z,31.80
2019-03-24T03:24:16.990Z,33.07
2019-03-24T03:26:45.385Z,31.37
2019-03-24T03:29:13.781Z,33.77
2019-03-24T03:31:42.257Z,33.07
2019-03-24T03:34:10.648Z,32.53
2019-03-24T03:36:39.084Z,31.17
2019-03-24T03:39:07.513Z,31.63
2019-03-24T03:41:35.988Z,31.77
2019-03-24T03:44:04.431Z,32.23
2019-03-24T03:46:32.864Z,32.17
2019-03-24T03:49:01.264Z,32.07
2019-03-24T03:51:29.670Z,30.50
2019-03-24T03:53:59.233Z,30.20
2019-03-24T03:56:27.850Z,30.47
2019-03-24T03:58:56.240Z,28.63
2019-03-24T04:01:24.765Z,31.43
2019-03-24T04:03:53.166Z,30.37
2019-03-24T04:06:21.565Z,27.33
2019-03-24T04:08:49.969Z,28.30
2019-03-24T04:11:18.454Z,29.93
2019-03-24T04:13:46.833Z,31.50
2019-03-24T04:16:15.294Z,29.17
2019-03-24T04:18:43.704Z,28.27
2019-03-24T04:21:12.098Z,29.80
2019-03-24T04:23:40.570Z,28.57
2019-03-24T04:26:08.963Z,29.20
2019-03-24T04:28:37.401Z,25.77
2019-03-24T04:31:05.791Z,28.00
2019-03-24T04:33:34.193Z,26.60
2019-03-24T04:36:02.666Z,26.60
2019-03-24T04:38:31.068Z,27.93
2019-03-24T04:40:59.474Z,26.23
2019-03-24T04:43:27.881Z,25.63
2019-03-24T04:45:56.288Z,26.83
2019-03-24T04:48:26.256Z,27.87
2019-03-24T04:50:54.662Z,25.03
2019-03-24T04:53:23.064Z,27.00
2019-03-24T04:55:51.461Z,27.20
2019-03-24T04:58:19.896Z,26.37
2019-03-24T05:00:48.312Z,28.30
2019-03-24T05:03:16.744Z,25.60
2019-03-24T05:05:45.144Z,27.00
2019-03-24T05:08:13.581Z,28.93
2019-03-24T05:10:41.974Z,35.07
2019-03-24T05:13:10.417Z,26.93
2019-03-24T05:15:38.820Z,27.07
2019-03-24T05:18:07.240Z,27.30
2019-03-24T05:20:35.636Z,26.33
2019-03-24T05:23:04.071Z,24.87
2019-03-24T05:25:32.467Z,27.00
2019-03-24T05:28:00.920Z,26.13
2019-03-24T05:30:29.319Z,23.20
2019-03-24T05:32:57.746Z,24.43
2019-03-24T05:35:26.147Z,27.83
2019-03-24T05:37:54.700Z,23.17
2019-03-24T05:40:23.103Z,22.87
2019-03-24T05:42:51.543Z,23.70
2019-03-24T05:45:19.944Z,24.80
2019-03-24T05:47:48.384Z,24.13
2019-03-24T05:50:16.891Z,22.63
2019-03-24T05:52:45.339Z,22.10
2019-03-24T05:55:13.744Z,21.63
2019-03-24T05:57:42.232Z,21.23
2019-03-24T06:00:10.706Z,21.30
2019-03-24T06:02:39.178Z,21.97
2019-03-24T06:05:07.618Z,22.40
2019-03-24T06:07:36.051Z,20.27
2019-03-24T06:10:07.164Z,21.27
2019-03-24T06:12:35.669Z,21.63
2019-03-24T06:15:05.230Z,19.70
2019-03-24T06:17:33.658Z,20.07
2019-03-24T06:20:02.058Z,20.13
2019-03-24T06:22:30.457Z,18.87
2019-03-24T06:24:58.862Z,21.90
2019-03-24T06:27:28.932Z,19.97
2019-03-24T06:29:58.972Z,19.13
2019-03-24T06:32:27.375Z,19.33
2019-03-24T06:34:57.309Z,19.43
2019-03-24T06:37:25.745Z,22.67
2019-03-24T06:39:54.178Z,18.47
2019-03-24T06:42:22.634Z,16.57
2019-03-24T06:44:51.099Z,17.87
2019-03-24T06:47:19.507Z,18.73
2019-03-24T06:49:47.903Z,16.53
2019-03-24T06:52:16.561Z,17.27
2019-03-24T06:54:44.955Z,18.00
2019-03-24T06:57:13.364Z,17.40
2019-03-24T06:59:41.768Z,17.10
2019-03-24T07:02:10.166Z,18.50
2019-03-24T07:04:38.590Z,16.97
2019-03-24T07:07:06.991Z,16.87
2019-03-24T07:09:35.475Z,17.83
2019-03-24T07:12:03.878Z,15.10
2019-03-24T07:14:32.281Z,15.53
2019-03-24T07:17:01.778Z,15.63
2019-03-24T07:19:30.176Z,13.57
2019-03-24T07:21:58.582Z,13.77
2019-03-24T07:24:26.994Z,17.27
2019-03-24T07:26:55.390Z,14.20
2019-03-24T07:29:23.792Z,15.13
2019-03-24T07:31:52.193Z,17.57
2019-03-24T07:34:20.669Z,14.93
2019-03-24T07:36:49.071Z,14.87
2019-03-24T07:39:17.495Z,14.13
2019-03-24T07:41:45.902Z,13.70
2019-03-24T07:44:14.391Z,13.60
2019-03-24T07:46:42.788Z,16.50
2019-03-24T07:49:11.240Z,13.33
2019-03-24T07:51:39.711Z,14.10
2019-03-24T07:54:08.229Z,12.50
2019-03-24T07:56:36.691Z,13.43
2019-03-24T07:59:05.134Z,13.43
2019-03-24T08:01:33.537Z,14.80
2019-03-24T08:04:01.975Z,13.27
2019-03-24T08:06:30.372Z,11.77
2019-03-24T08:08:58.812Z,15.00
2019-03-24T08:11:27.231Z,14.00
2019-03-24T08:13:55.662Z,15.63
2019-03-24T08:16:24.034Z,15.43
2019-03-24T08:18:52.452Z,19.57
2019-03-24T08:21:20.839Z,12.60
2019-03-24T08:23:49.283Z,11.70
2019-03-24T08:26:17.676Z,21.53
2019-03-24T08:28:46.102Z,11.93
2019-03-24T08:31:14.504Z,11.97
2019-03-24T08:33:42.920Z,14.17
2019-03-24T08:36:11.308Z,17.30
2019-03-24T08:38:39.739Z,14.93
2019-03-24T08:41:08.139Z,13.53
2019-03-24T08:43:36.596Z,15.50
2019-03-24T08:46:05.000Z,14.30
2019-03-24T08:48:40.819Z,14.27
2019-03-24T08:51:03.556Z,12.20
2019-03-24T08:53:31.960Z,13.30
2019-03-24T08:56:00.391Z,11.30
2019-03-24T08:58:28.754Z,14.00
2019-03-24T09:00:57.215Z,18.77
2019-03-24T09:03:25.612Z,12.33
2019-03-24T09:05:54.005Z,10.77
2019-03-24T09:08:22.394Z,9.63
2019-03-24T09:10:50.829Z,11.50
2019-03-24T09:13:19.228Z,12.07
2019-03-24T09:15:47.650Z,11.17
2019-03-24T09:18:16.054Z,10.23
2019-03-24T09:20:44.485Z,10.00
2019-03-24T09:23:12.871Z,9.07
2019-03-24T09:25:41.386Z,11.53
2019-03-24T09:28:09.882Z,10.00
2019-03-24T09:30:38.348Z,8.83
2019-03-24T09:33:06.754Z,10.60
2019-03-24T09:35:35.205Z,9.90
2019-03-24T09:38:05.236Z,9.13
2019-03-24T09:40:34.871Z,8.60
2019-03-24T09:43:03.320Z,7.90
2019-03-24T09:45:31.970Z,7.90
2019-03-24T09:48:00.544Z,7.47
2019-03-24T09:50:28.936Z,9.73
2019-03-24T09:52:57.498Z,7.73
2019-03-24T09:55:25.896Z,7.43
2019-03-24T09:57:54.283Z,8.03
2019-03-24T10:00:22.676Z,8.00
2019-03-24T10:02:51.070Z,8.07
2019-03-24T10:05:19.456Z,9.67
2019-03-24T10:07:47.846Z,7.20
2019-03-24T10:10:16.233Z,6.80
2019-03-24T10:12:44.620Z,6.27
2019-03-24T10:15:13.019Z,6.67
2019-03-24T10:17:41.400Z,7.07
2019-03-24T10:20:09.791Z,6.53
2019-03-24T10:22:38.261Z,6.60
2019-03-24T10:25:07.426Z,7.83
2019-03-24T10:27:35.820Z,7.10
2019-03-24T10:30:08.138Z,5.70
2019-03-24T10:32:36.615Z,6.70
2019-03-24T10:35:06.735Z,6.43
2019-03-24T10:37:35.121Z,8.60
2019-03-24T10:40:04.198Z,5.13
2019-03-24T10:42:32.650Z,7.93
2019-03-24T10:45:02.763Z,7.00
2019-03-24T10:47:31.148Z,5.87
2019-03-24T10:49:59.578Z,5.77
2019-03-24T10:52:27.972Z,9.00
2019-03-24T10:54:56.402Z,8.13
2019-03-24T10:57:25.301Z,9.20
2019-03-24T10:59:53.735Z,9.00
2019-03-24T11:02:22.190Z,9.57
2019-03-24T11:04:50.664Z,10.67
2019-03-24T11:07:19.050Z,11.07
2019-03-24T11:09:47.491Z,14.17
2019-03-24T11:12:15.882Z,14.73
2019-03-24T11:14:44.388Z,10.60
2019-03-24T11:17:12.783Z,13.03
2019-03-24T11:19:41.178Z,9.33
2019-03-24T11:22:09.574Z,11.07
2019-03-24T11:24:37.992Z,10.43
2019-03-24T11:27:06.395Z,13.37
2019-03-24T11:29:34.781Z,12.90
2019-03-24T11:32:03.176Z,10.87
2019-03-24T11:34:31.573Z,12.30
2019-03-24T11:36:59.975Z,11.47
2019-03-24T11:39:28.364Z,10.07
2019-03-24T11:41:56.757Z,9.47
2019-03-24T11:44:25.156Z,10.40
2019-03-24T11:46:53.550Z,11.63
2019-03-24T11:49:21.935Z,10.03
2019-03-24T11:51:50.343Z,11.03
2019-03-24T11:54:18.729Z,10.43
2019-03-24T11:56:47.150Z,10.87
2019-03-24T11:59:15.536Z,8.73
2019-03-24T12:01:43.968Z,10.00
2019-03-24T12:04:12.356Z,6.90
2019-03-24T12:06:40.850Z,8.67
2019-03-24T12:09:09.257Z,8.10
2019-03-24T12:11:37.687Z,8.50
2019-03-24T12:14:06.141Z,6.97
2019-03-24T12:16:34.571Z,7.83
2019-03-24T12:19:02.974Z,12.40
2019-03-24T12:21:31.403Z,9.70
2019-03-24T12:23:59.791Z,6.87
2019-03-24T12:26:28.226Z,6.83
2019-03-24T12:28:56.719Z,6.50
2019-03-24T12:31:25.137Z,7.23
2019-03-24T12:33:53.605Z,6.80
2019-03-24T12:36:21.992Z,7.90
2019-03-24T12:38:50.384Z,8.23
2019-03-24T12:41:18.772Z,7.67
2019-03-24T12:43:47.165Z,6.27
2019-03-24T12:46:15.555Z,6.13
2019-03-24T12:48:43.947Z,5.07
2019-03-24T12:51:12.344Z,8.33
2019-03-24T12:53:40.732Z,6.23
2019-03-24T12:56:09.114Z,5.00
2019-03-24T12:58:37.535Z,4.60
2019-03-24T13:01:05.926Z,5.70
2019-03-24T13:03:35.911Z,6.03
2019-03-24T13:06:04.894Z,6.40
2019-03-24T13:08:33.287Z,5.07
2019-03-24T13:11:01.733Z,7.77
2019-03-24T13:13:30.117Z,4.53
2019-03-24T13:15:58.525Z,5.93
2019-03-24T13:18:26.943Z,4.73
2019-03-24T13:20:55.364Z,5.70
2019-03-24T13:23:23.744Z,6.47
2019-03-24T13:25:52.175Z,5.03
2019-03-24T13:28:21.090Z,8.43
2019-03-24T13:30:49.486Z,5.17
2019-03-24T13:33:17.877Z,6.60
2019-03-24T13:35:47.445Z,6.30
2019-03-24T13:38:15.838Z,4.50
2019-03-24T13:40:44.224Z,4.97
2019-03-24T13:43:12.700Z,8.63
2019-03-24T13:45:41.097Z,4.47
2019-03-24T13:48:09.552Z,6.53
2019-03-24T13:50:38.069Z,5.40
2019-03-24T13:53:06.462Z,5.90
2019-03-24T13:55:34.843Z,5.97
2019-03-24T13:58:04.424Z,5.90
2019-03-24T14:00:32.822Z,7.70
2019-03-24T14:03:01.455Z,4.53
2019-03-24T14:05:29.839Z,6.17
2019-03-24T14:07:58.228Z,4.70
2019-03-24T14:10:26.625Z,6.27
2019-03-24T14:12:55.019Z,4.87
2019-03-24T14:15:23.413Z,5.80
2019-03-24T14:17:51.813Z,8.60
2019-03-24T14:20:20.202Z,6.53
2019-03-24T14:22:48.594Z,5.73
2019-03-24T14:25:16.986Z,5.23
2019-03-24T14:27:45.410Z,7.00
2019-03-24T14:30:13.798Z,6.03
2019-03-24T14:32:42.213Z,5.80
2019-03-24T14:35:10.607Z,4.53
2019-03-24T14:37:39.091Z,6.70
2019-03-24T14:40:08.010Z,5.67
2019-03-24T14:42:36.432Z,4.77
2019-03-24T14:45:06.956Z,6.37
2019-03-24T14:47:35.393Z,6.37
2019-03-24T14:50:06.351Z,10.63
2019-03-24T14:52:34.776Z,6.40
2019-03-24T14:55:03.175Z,7.27
2019-03-24T14:57:31.609Z,11.40
2019-03-24T14:59:59.996Z,8.27
2019-03-24T15:02:28.410Z,8.30
2019-03-24T15:04:56.816Z,9.10
2019-03-24T15:07:25.246Z,7.00
2019-03-24T15:09:53.632Z,6.67
2019-03-24T15:12:22.109Z,7.07
2019-03-24T15:14:50.491Z,8.50
2019-03-24T15:17:18.972Z,8.93
2019-03-24T15:19:47.367Z,10.60
2019-03-24T15:22:15.772Z,9.30
2019-03-24T15:24:44.185Z,9.27
2019-03-24T15:27:12.658Z,11.00
2019-03-24T15:29:41.056Z,10.07
2019-03-24T15:32:09.482Z,8.73
2019-03-24T15:34:37.914Z,9.57
2019-03-24T15:37:06.323Z,8.43
2019-03-24T15:39:34.887Z,10.67
2019-03-24T15:42:03.317Z,9.80
2019-03-24T15:44:31.725Z,8.67
2019-03-24T15:47:00.119Z,8.70
2019-03-24T15:49:28.510Z,8.57
2019-03-24T15:51:56.898Z,8.13
2019-03-24T15:54:25.383Z,7.50
2019-03-24T15:56:53.778Z,6.60
2019-03-24T15:59:22.163Z,7.33
2019-03-24T16:01:50.681Z,10.13
2019-03-24T16:04:19.073Z,8.57
2019-03-24T16:06:47.466Z,8.17
2019-03-24T16:09:15.860Z,9.97
2019-03-24T16:11:44.249Z,8.20
2019-03-24T16:14:15.222Z,8.50
2019-03-24T16:16:43.610Z,8.17
2019-03-24T16:19:12.014Z,7.70
2019-03-24T16:21:40.396Z,6.93
2019-03-24T16:24:08.791Z,7.43
2019-03-24T16:26:37.180Z,6.77
2019-03-24T16:29:05.576Z,12.07
2019-03-24T16:31:33.962Z,10.67
2019-03-24T16:34:02.353Z,9.73
2019-03-24T16:36:30.860Z,9.77
2019-03-24T16:39:03.569Z,11.97
2019-03-24T16:41:29.385Z,10.97
2019-03-24T16:43:57.779Z,10.13
2019-03-24T16:46:26.179Z,14.80
2019-03-24T16:48:54.566Z,11.87
2019-03-24T16:51:22.954Z,11.43
2019-03-24T16:53:51.432Z,15.23
2019-03-24T16:56:19.791Z,12.50
2019-03-24T16:58:48.456Z,11.73
2019-03-24T17:01:16.885Z,14.17
2019-03-24T17:03:45.275Z,13.53
2019-03-24T17:06:13.705Z,13.60
2019-03-24T17:08:42.064Z,8.00
2019-03-24T17:11:10.461Z,11.97
2019-03-24T17:13:38.921Z,12.57
2019-03-24T17:16:07.309Z,9.87
2019-03-24T17:18:35.772Z,13.20
2019-03-24T17:21:04.169Z,13.27
2019-03-24T17:23:32.635Z,13.73
2019-03-24T17:26:01.023Z,12.67
2019-03-24T17:28:29.446Z,15.33
2019-03-24T17:30:57.832Z,9.97
2019-03-24T17:33:26.263Z,7.20
2019-03-24T17:35:54.739Z,9.53
2019-03-24T17:38:23.219Z,13.20
2019-03-24T17:40:51.614Z,15.33
2019-03-24T17:43:20.057Z,18.40
2019-03-24T17:45:48.458Z,13.70
2019-03-24T17:48:16.940Z,17.20
2019-03-24T17:50:45.344Z,14.60
2019-03-24T17:53:13.802Z,14.83
2019-03-24T17:55:42.201Z,16.63
2019-03-24T17:58:10.639Z,15.93
2019-03-24T18:00:41.569Z,19.57
2019-03-24T18:03:10.002Z,19.10
2019-03-24T18:05:38.467Z,16.07
2019-03-24T18:08:06.937Z,17.83
2019-03-24T18:10:35.338Z,20.10
2019-03-24T18:13:03.909Z,18.37
2019-03-24T18:15:32.316Z,18.77
2019-03-24T18:18:00.803Z,16.07
2019-03-24T18:20:34.656Z,21.33
2019-03-24T18:23:03.048Z,18.83
2019-03-24T18:25:32.335Z,23.33
2019-03-24T18:28:00.791Z,16.17
2019-03-24T18:30:29.192Z,20.70
2019-03-24T18:32:57.605Z,19.30
2019-03-24T18:35:26.035Z,20.50
2019-03-24T18:37:54.447Z,19.03
2019-03-24T18:40:22.924Z,18.10
2019-03-24T18:42:51.320Z,19.83
2019-03-24T18:45:20.518Z,19.90
2019-03-24T18:47:48.918Z,18.00
2019-03-24T18:50:17.314Z,22.03
2019-03-24T18:52:45.718Z,20.80
2019-03-24T18:55:14.355Z,16.47
2019-03-24T18:57:42.777Z,19.50
2019-03-24T19:00:12.683Z,21.63
2019-03-24T19:02:41.149Z,17.13
2019-03-24T19:05:09.552Z,20.70
2019-03-24T19:07:37.961Z,18.33
2019-03-24T19:10:13.324Z,18.97
2019-03-24T19:12:41.719Z,20.03
2019-03-24T19:15:12.725Z,16.73
2019-03-24T19:17:41.127Z,17.47
2019-03-24T19:20:09.518Z,17.10
2019-03-24T19:22:37.922Z,19.70
2019-03-24T19:25:09.337Z,18.27
2019-03-24T19:27:37.731Z,18.60
2019-03-24T19:30:11.233Z,17.67
2019-03-24T19:32:39.640Z,16.77
2019-03-24T19:35:08.043Z,19.03
2019-03-24T19:37:37.963Z,17.20
2019-03-24T19:40:08.913Z,18.30
2019-03-24T19:42:37.305Z,16.97
2019-03-24T19:45:05.843Z,20.37
2019-03-24T19:47:34.297Z,17.50
2019-03-24T19:50:02.924Z,17.00
2019-03-24T19:52:31.330Z,18.03
2019-03-24T19:54:59.739Z,15.47
2019-03-24T19:57:28.133Z,15.37
2019-03-24T19:59:56.568Z,18.00
2019-03-24T20:02:24.971Z,17.10
2019-03-24T20:04:53.404Z,17.10
2019-03-24T20:07:21.827Z,21.90
2019-03-24T20:09:50.259Z,18.33
2019-03-24T20:12:18.667Z,21.20
2019-03-24T20:14:47.101Z,22.57
2019-03-24T20:17:15.498Z,26.07
2019-03-24T20:19:43.916Z,23.63
2019-03-24T20:22:12.314Z,30.97
2019-03-24T20:24:40.829Z,19.70
2019-03-24T20:27:09.219Z,25.30
2019-03-24T20:29:37.619Z,22.37
2019-03-24T20:32:06.069Z,17.93
2019-03-24T20:34:34.473Z,19.83
2019-03-24T20:37:02.916Z,20.60
2019-03-24T20:39:31.384Z,21.63
2019-03-24T20:41:59.791Z,18.53
2019-03-24T20:44:28.196Z,17.80
2019-03-24T20:46:56.592Z,17.50
2019-03-24T20:49:24.993Z,18.33
2019-03-24T20:51:53.397Z,15.60
2019-03-24T20:54:21.867Z,15.27
2019-03-24T20:56:50.269Z,13.40
2019-03-24T20:59:18.658Z,17.50
2019-03-24T21:01:47.055Z,16.63
2019-03-24T21:04:15.748Z,16.17
2019-03-24T21:06:44.162Z,13.10
2019-03-24T21:09:12.554Z,12.47
2019-03-24T21:11:41.049Z,14.07
2019-03-24T21:14:09.437Z,12.93
2019-03-24T21:16:37.918Z,15.40
2019-03-24T21:19:06.310Z,16.57
2019-03-24T21:21:36.245Z,12.70
2019-03-24T21:24:04.852Z,9.33
2019-03-24T21:26:33.264Z,11.67
2019-03-24T21:29:01.662Z,15.23
2019-03-24T21:31:30.107Z,12.53
2019-03-24T21:33:58.504Z,10.67
2019-03-24T21:36:26.984Z,11.13
2019-03-24T21:38:55.387Z,12.00
2019-03-24T21:41:23.930Z,12.10
2019-03-24T21:43:52.429Z,12.60
2019-03-24T21:46:20.909Z,11.43
2019-03-24T21:48:49.375Z,11.37
2019-03-24T21:51:17.770Z,10.33
2019-03-24T21:53:46.162Z,12.00
2019-03-24T21:56:14.979Z,11.20
2019-03-24T21:58:43.369Z,10.80
2019-03-24T22:01:11.760Z,11.20
2019-03-24T22:03:40.151Z,12.83
2019-03-24T22:06:08.552Z,12.27
2019-03-24T22:08:37.031Z,10.40
2019-03-24T22:11:05.425Z,12.17
2019-03-24T22:13:33.850Z,8.80
2019-03-24T22:16:02.231Z,10.20
2019-03-24T22:18:30.629Z,12.83
2019-03-24T22:20:59.023Z,11.10
2019-03-24T22:23:27.420Z,10.73
2019-03-24T22:25:55.825Z,9.07
2019-03-24T22:28:24.217Z,10.90
2019-03-24T22:30:52.639Z,12.73
2019-03-24T22:33:21.043Z,12.37
2019-03-24T22:35:49.465Z,14.60
2019-03-24T22:38:17.873Z,16.77
2019-03-24T22:40:46.289Z,16.90
2019-03-24T22:43:14.682Z,19.30
2019-03-24T22:45:43.116Z,15.63
2019-03-24T22:48:11.590Z,19.40
2019-03-24T22:50:40.268Z,17.90
2019-03-24T22:53:08.668Z,18.77
2019-03-24T22:55:37.119Z,20.37
2019-03-24T22:58:05.484Z,20.90
2019-03-24T23:00:53.078Z,18.23
2019-03-24T23:03:21.713Z,17.77
2019-03-24T23:05:50.114Z,17.40
2019-03-24T23:08:18.521Z,17.57
2019-03-24T23:10:46.935Z,16.10
2019-03-24T23:13:15.337Z,18.17
2019-03-24T23:15:43.736Z,21.43
2019-03-24T23:18:12.128Z,19.07
2019-03-24T23:20:40.534Z,16.30
2019-03-24T23:23:08.932Z,19.13
2019-03-24T23:25:37.332Z,20.47
2019-03-24T23:28:05.910Z,19.20
2019-03-24T23:30:34.301Z,18.37
2019-03-24T23:33:02.709Z,19.13
2019-03-24T23:35:31.115Z,17.73
2019-03-24T23:37:59.514Z,20.00
2019-03-24T23:40:27.913Z,21.77
2019-03-24T23:42:56.329Z,17.93
2019-03-24T23:45:24.717Z,18.23
2019-03-24T23:47:53.189Z,19.17
2019-03-24T23:50:21.587Z,18.27
2019-03-24T23:52:50.018Z,18.80
2019-03-24T23:55:18.412Z,20.13
2019-03-24T23:57:46.872Z,16.43
